sensor_id;sensor_type;location;lat;lon;timestamp;temperature;humidity
12634;DHT22;6382;48.614;8.880;2022-08-19T00:01:40;19.50;99.90
12634;DHT22;6382;48.614;8.880;2022-08-19T00:04:10;21.40;99.90
12634;DHT22;6382;48.614;8.880;2022-08-19T00:06:38;20.10;99.90
12634;DHT22;6382;48.614;8.880;2022-08-19T00:09:06;19.60;99.90
12634;DHT22;6382;48.614;8.880;2022-08-19T00:11:33;19.50;99.90
12634;DHT22;6382;48.614;8.880;2022-08-19T00:14:04;20.30;99.90
12634;DHT22;6382;48.614;8.880;2022-08-19T00:16:31;19.50;99.90
12634;DHT22;6382;48.614;8.880;2022-08-19T00:18:58;20.60;99.90
12634;DHT22;6382;48.614;8.880;2022-08-19T00:21:25;19.70;99.90
12634;DHT22;6382;48.614;8.880;2022-08-19T00:23:53;19.40;99.90
12634;DHT22;6382;48.614;8.880;2022-08-19T00:26:20;19.50;99.90
12634;DHT22;6382;48.614;8.880;2022-08-19T00:28:47;20.90;99.90
12634;DHT22;6382;48.614;8.880;2022-08-19T00:31:14;20.30;99.90
12634;DHT22;6382;48.614;8.880;2022-08-19T00:33:42;19.40;99.90
12634;DHT22;6382;48.614;8.880;2022-08-19T00:36:10;19.60;99.90
12634;DHT22;6382;48.614;8.880;2022-08-19T00:38:38;20.40;99.90
12634;DHT22;6382;48.614;8.880;2022-08-19T00:41:07;20.20;99.90
12634;DHT22;6382;48.614;8.880;2022-08-19T00:43:36;19.60;99.90
12634;DHT22;6382;48.614;8.880;2022-08-19T00:46:04;19.30;99.90
12634;DHT22;6382;48.614;8.880;2022-08-19T00:48:31;19.30;99.90
12634;DHT22;6382;48.614;8.880;2022-08-19T00:50:59;20.70;99.90
12634;DHT22;6382;48.614;8.880;2022-08-19T00:53:26;19.90;99.90
12634;DHT22;6382;48.614;8.880;2022-08-19T00:55:55;20.40;99.90
12634;DHT22;6382;48.614;8.880;2022-08-19T00:58:24;19.70;99.90
12634;DHT22;6382;48.614;8.880;2022-08-19T01:00:51;20.40;99.90
12634;DHT22;6382;48.614;8.880;2022-08-19T01:03:19;19.90;99.90
12634;DHT22;6382;48.614;8.880;2022-08-19T01:05:46;19.10;99.90
12634;DHT22;6382;48.614;8.880;2022-08-19T01:08:14;19.20;99.90
12634;DHT22;6382;48.614;8.880;2022-08-19T01:10:43;19.10;99.90
12634;DHT22;6382;48.614;8.880;2022-08-19T01:13:10;19.00;99.90
12634;DHT22;6382;48.614;8.880;2022-08-19T01:15:40;19.40;99.90
12634;DHT22;6382;48.614;8.880;2022-08-19T01:18:10;19.10;99.90
12634;DHT22;6382;48.614;8.880;2022-08-19T01:20:38;20.60;99.90
12634;DHT22;6382;48.614;8.880;2022-08-19T01:23:05;19.20;99.90
12634;DHT22;6382;48.614;8.880;2022-08-19T01:25:35;20.50;99.90
12634;DHT22;6382;48.614;8.880;2022-08-19T01:28:04;19.20;99.90
12634;DHT22;6382;48.614;8.880;2022-08-19T01:30:36;19.30;99.90
12634;DHT22;6382;48.614;8.880;2022-08-19T01:33:03;19.20;99.90
12634;DHT22;6382;48.614;8.880;2022-08-19T01:35:32;19.20;99.90
12634;DHT22;6382;48.614;8.880;2022-08-19T01:38:00;20.60;99.90
12634;DHT22;6382;48.614;8.880;2022-08-19T01:40:30;19.20;99.90
12634;DHT22;6382;48.614;8.880;2022-08-19T01:42:57;19.10;99.90
12634;DHT22;6382;48.614;8.880;2022-08-19T01:45:25;19.00;99.90
12634;DHT22;6382;48.614;8.880;2022-08-19T01:47:52;19.00;99.90
12634;DHT22;6382;48.614;8.880;2022-08-19T01:50:28;18.90;99.90
12634;DHT22;6382;48.614;8.880;2022-08-19T01:52:55;18.70;99.90
12634;DHT22;6382;48.614;8.880;2022-08-19T01:55:31;20.10;99.90
12634;DHT22;6382;48.614;8.880;2022-08-19T01:57:59;18.60;99.90
12634;DHT22;6382;48.614;8.880;2022-08-19T02:00:27;18.60;99.90
12634;DHT22;6382;48.614;8.880;2022-08-19T02:02:54;18.90;99.90
12634;DHT22;6382;48.614;8.880;2022-08-19T02:05:21;18.50;99.90
12634;DHT22;6382;48.614;8.880;2022-08-19T02:07:48;19.40;99.90
12634;DHT22;6382;48.614;8.880;2022-08-19T02:10:17;19.80;99.90
12634;DHT22;6382;48.614;8.880;2022-08-19T02:12:44;18.40;99.90
12634;DHT22;6382;48.614;8.880;2022-08-19T02:15:13;19.20;99.90
12634;DHT22;6382;48.614;8.880;2022-08-19T02:17:39;18.20;99.90
12634;DHT22;6382;48.614;8.880;2022-08-19T02:20:06;18.20;99.90
12634;DHT22;6382;48.614;8.880;2022-08-19T02:22:34;18.20;99.90
12634;DHT22;6382;48.614;8.880;2022-08-19T02:25:01;18.10;99.90
12634;DHT22;6382;48.614;8.880;2022-08-19T02:27:28;18.10;99.90
12634;DHT22;6382;48.614;8.880;2022-08-19T02:29:55;19.20;99.90
12634;DHT22;6382;48.614;8.880;2022-08-19T02:32:22;19.10;99.90
12634;DHT22;6382;48.614;8.880;2022-08-19T02:34:49;18.20;99.90
12634;DHT22;6382;48.614;8.880;2022-08-19T02:37:15;19.80;99.90
12634;DHT22;6382;48.614;8.880;2022-08-19T02:40:01;18.00;99.90
12634;DHT22;6382;48.614;8.880;2022-08-19T02:42:28;18.00;99.90
12634;DHT22;6382;48.614;8.880;2022-08-19T02:44:55;19.50;99.90
12634;DHT22;6382;48.614;8.880;2022-08-19T02:47:22;18.70;99.90
12634;DHT22;6382;48.614;8.880;2022-08-19T02:49:49;20.10;99.90
12634;DHT22;6382;48.614;8.880;2022-08-19T02:52:18;17.90;99.90
12634;DHT22;6382;48.614;8.880;2022-08-19T02:54:45;19.70;99.90
12634;DHT22;6382;48.614;8.880;2022-08-19T02:57:12;19.20;99.90
12634;DHT22;6382;48.614;8.880;2022-08-19T02:59:38;18.00;99.90
12634;DHT22;6382;48.614;8.880;2022-08-19T03:02:06;18.70;99.90
12634;DHT22;6382;48.614;8.880;2022-08-19T03:04:33;18.00;99.90
12634;DHT22;6382;48.614;8.880;2022-08-19T03:06:59;18.50;99.90
12634;DHT22;6382;48.614;8.880;2022-08-19T03:09:37;18.00;99.90
12634;DHT22;6382;48.614;8.880;2022-08-19T03:12:04;17.90;99.90
12634;DHT22;6382;48.614;8.880;2022-08-19T03:14:31;17.90;99.90
12634;DHT22;6382;48.614;8.880;2022-08-19T03:16:58;18.50;99.90
12634;DHT22;6382;48.614;8.880;2022-08-19T03:19:25;19.90;99.90
12634;DHT22;6382;48.614;8.880;2022-08-19T03:21:52;18.00;99.90
12634;DHT22;6382;48.614;8.880;2022-08-19T03:24:22;19.20;99.90
12634;DHT22;6382;48.614;8.880;2022-08-19T03:26:50;19.00;99.90
12634;DHT22;6382;48.614;8.880;2022-08-19T03:29:20;17.90;99.90
12634;DHT22;6382;48.614;8.880;2022-08-19T03:31:57;19.20;99.90
12634;DHT22;6382;48.614;8.880;2022-08-19T03:34:25;18.90;99.90
12634;DHT22;6382;48.614;8.880;2022-08-19T03:36:55;18.00;99.90
12634;DHT22;6382;48.614;8.880;2022-08-19T03:39:23;19.10;99.90
12634;DHT22;6382;48.614;8.880;2022-08-19T03:41:50;17.90;99.90
12634;DHT22;6382;48.614;8.880;2022-08-19T03:44:37;18.50;99.90
12634;DHT22;6382;48.614;8.880;2022-08-19T03:47:04;18.00;99.90
12634;DHT22;6382;48.614;8.880;2022-08-19T03:49:32;18.00;99.90
12634;DHT22;6382;48.614;8.880;2022-08-19T03:51:59;18.90;99.90
12634;DHT22;6382;48.614;8.880;2022-08-19T03:54:31;18.00;99.90
12634;DHT22;6382;48.614;8.880;2022-08-19T03:56:58;17.90;99.90
12634;DHT22;6382;48.614;8.880;2022-08-19T03:59:30;18.60;99.90
12634;DHT22;6382;48.614;8.880;2022-08-19T04:01:57;19.50;99.90
12634;DHT22;6382;48.614;8.880;2022-08-19T04:04:24;19.50;99.90
12634;DHT22;6382;48.614;8.880;2022-08-19T04:06:55;18.00;99.90
12634;DHT22;6382;48.614;8.880;2022-08-19T04:09:22;18.70;99.90
12634;DHT22;6382;48.614;8.880;2022-08-19T04:11:50;19.70;99.90
12634;DHT22;6382;48.614;8.880;2022-08-19T04:14:20;19.20;99.90
12634;DHT22;6382;48.614;8.880;2022-08-19T04:16:47;18.50;99.90
12634;DHT22;6382;48.614;8.880;2022-08-19T04:19:14;19.00;99.90
12634;DHT22;6382;48.614;8.880;2022-08-19T04:21:43;18.70;99.90
12634;DHT22;6382;48.614;8.880;2022-08-19T04:24:10;20.20;99.90
12634;DHT22;6382;48.614;8.880;2022-08-19T04:26:37;18.10;99.90
12634;DHT22;6382;48.614;8.880;2022-08-19T04:29:10;20.70;99.90
12634;DHT22;6382;48.614;8.880;2022-08-19T04:31:39;18.10;99.90
12634;DHT22;6382;48.614;8.880;2022-08-19T04:34:07;18.20;99.90
12634;DHT22;6382;48.614;8.880;2022-08-19T04:36:35;18.00;99.90
12634;DHT22;6382;48.614;8.880;2022-08-19T04:39:03;17.90;99.90
12634;DHT22;6382;48.614;8.880;2022-08-19T04:41:30;19.00;99.90
12634;DHT22;6382;48.614;8.880;2022-08-19T04:44:16;17.90;99.90
12634;DHT22;6382;48.614;8.880;2022-08-19T04:46:45;18.10;99.90
12634;DHT22;6382;48.614;8.880;2022-08-19T04:49:20;18.80;99.90
12634;DHT22;6382;48.614;8.880;2022-08-19T04:51:51;17.90;99.90
12634;DHT22;6382;48.614;8.880;2022-08-19T04:54:22;17.90;99.90
12634;DHT22;6382;48.614;8.880;2022-08-19T04:57:07;20.30;99.90
12634;DHT22;6382;48.614;8.880;2022-08-19T04:59:37;18.00;99.90
12634;DHT22;6382;48.614;8.880;2022-08-19T05:02:05;18.30;99.90
12634;DHT22;6382;48.614;8.880;2022-08-19T05:04:32;18.00;99.90
12634;DHT22;6382;48.614;8.880;2022-08-19T05:07:00;20.50;99.90
12634;DHT22;6382;48.614;8.880;2022-08-19T05:09:29;20.60;99.90
12634;DHT22;6382;48.614;8.880;2022-08-19T05:12:16;18.10;99.90
12634;DHT22;6382;48.614;8.880;2022-08-19T05:14:43;18.30;99.90
12634;DHT22;6382;48.614;8.880;2022-08-19T05:17:12;18.20;99.90
12634;DHT22;6382;48.614;8.880;2022-08-19T05:19:58;18.20;99.90
12634;DHT22;6382;48.614;8.880;2022-08-19T05:22:45;18.20;99.90
12634;DHT22;6382;48.614;8.880;2022-08-19T05:25:14;19.10;99.90
12634;DHT22;6382;48.614;8.880;2022-08-19T05:27:42;18.20;99.90
12634;DHT22;6382;48.614;8.880;2022-08-19T05:30:09;18.60;99.90
12634;DHT22;6382;48.614;8.880;2022-08-19T05:32:36;18.10;99.90
12634;DHT22;6382;48.614;8.880;2022-08-19T05:35:03;18.10;99.90
12634;DHT22;6382;48.614;8.880;2022-08-19T05:37:30;18.20;99.90
12634;DHT22;6382;48.614;8.880;2022-08-19T05:39:57;19.00;99.90
12634;DHT22;6382;48.614;8.880;2022-08-19T05:42:23;20.30;99.90
12634;DHT22;6382;48.614;8.880;2022-08-19T05:44:50;20.10;99.90
12634;DHT22;6382;48.614;8.880;2022-08-19T05:47:17;18.20;99.90
12634;DHT22;6382;48.614;8.880;2022-08-19T05:49:46;18.10;99.90
12634;DHT22;6382;48.614;8.880;2022-08-19T05:52:14;18.90;99.90
12634;DHT22;6382;48.614;8.880;2022-08-19T05:54:44;19.50;99.90
12634;DHT22;6382;48.614;8.880;2022-08-19T05:57:20;20.70;99.90
12634;DHT22;6382;48.614;8.880;2022-08-19T05:59:46;18.30;99.90
12634;DHT22;6382;48.614;8.880;2022-08-19T06:02:18;18.30;99.90
12634;DHT22;6382;48.614;8.880;2022-08-19T06:04:45;18.90;99.90
12634;DHT22;6382;48.614;8.880;2022-08-19T06:07:12;19.50;99.90
12634;DHT22;6382;48.614;8.880;2022-08-19T06:09:39;21.00;99.90
12634;DHT22;6382;48.614;8.880;2022-08-19T06:12:09;19.80;99.90
12634;DHT22;6382;48.614;8.880;2022-08-19T06:14:35;19.40;99.90
12634;DHT22;6382;48.614;8.880;2022-08-19T06:17:07;19.60;99.90
12634;DHT22;6382;48.614;8.880;2022-08-19T06:19:35;19.20;99.90
12634;DHT22;6382;48.614;8.880;2022-08-19T06:22:06;17.20;99.90
12634;DHT22;6382;48.614;8.880;2022-08-19T06:24:34;18.40;99.90
12634;DHT22;6382;48.614;8.880;2022-08-19T06:27:02;18.80;99.90
12634;DHT22;6382;48.614;8.880;2022-08-19T06:29:29;19.20;99.90
12634;DHT22;6382;48.614;8.880;2022-08-19T06:31:57;18.40;99.90
12634;DHT22;6382;48.614;8.880;2022-08-19T06:34:25;19.50;99.90
12634;DHT22;6382;48.614;8.880;2022-08-19T06:36:52;18.40;99.90
12634;DHT22;6382;48.614;8.880;2022-08-19T06:39:20;18.50;99.90
12634;DHT22;6382;48.614;8.880;2022-08-19T06:41:48;19.50;99.90
12634;DHT22;6382;48.614;8.880;2022-08-19T06:44:20;19.50;99.90
12634;DHT22;6382;48.614;8.880;2022-08-19T06:46:47;18.60;99.90
12634;DHT22;6382;48.614;8.880;2022-08-19T06:49:20;18.80;99.90
12634;DHT22;6382;48.614;8.880;2022-08-19T06:51:47;19.60;99.90
12634;DHT22;6382;48.614;8.880;2022-08-19T06:54:17;18.60;99.90
12634;DHT22;6382;48.614;8.880;2022-08-19T06:56:46;19.50;99.90
12634;DHT22;6382;48.614;8.880;2022-08-19T06:59:16;20.70;99.90
12634;DHT22;6382;48.614;8.880;2022-08-19T07:01:51;18.80;99.90
12634;DHT22;6382;48.614;8.880;2022-08-19T07:04:19;18.80;99.90
12634;DHT22;6382;48.614;8.880;2022-08-19T07:06:47;18.90;99.90
12634;DHT22;6382;48.614;8.880;2022-08-19T07:09:20;19.20;99.90
12634;DHT22;6382;48.614;8.880;2022-08-19T07:11:48;19.00;99.90
12634;DHT22;6382;48.614;8.880;2022-08-19T07:14:17;19.00;99.90
12634;DHT22;6382;48.614;8.880;2022-08-19T07:16:46;19.00;99.90
12634;DHT22;6382;48.614;8.880;2022-08-19T07:19:13;19.60;99.90
12634;DHT22;6382;48.614;8.880;2022-08-19T07:21:44;19.30;99.90
12634;DHT22;6382;48.614;8.880;2022-08-19T07:24:10;19.00;99.90
12634;DHT22;6382;48.614;8.880;2022-08-19T07:26:39;19.00;99.90
12634;DHT22;6382;48.614;8.880;2022-08-19T07:29:07;19.10;99.90
12634;DHT22;6382;48.614;8.880;2022-08-19T07:31:35;19.10;99.90
12634;DHT22;6382;48.614;8.880;2022-08-19T07:34:04;20.60;99.90
12634;DHT22;6382;48.614;8.880;2022-08-19T07:36:35;19.90;99.90
12634;DHT22;6382;48.614;8.880;2022-08-19T07:39:07;19.10;99.90
12634;DHT22;6382;48.614;8.880;2022-08-19T07:41:34;19.10;99.90
12634;DHT22;6382;48.614;8.880;2022-08-19T07:44:01;19.10;99.90
12634;DHT22;6382;48.614;8.880;2022-08-19T07:46:30;19.20;99.90
12634;DHT22;6382;48.614;8.880;2022-08-19T07:48:57;19.20;99.90
12634;DHT22;6382;48.614;8.880;2022-08-19T07:51:24;20.40;99.90
12634;DHT22;6382;48.614;8.880;2022-08-19T07:54:02;19.30;99.90
12634;DHT22;6382;48.614;8.880;2022-08-19T07:56:29;19.30;99.90
12634;DHT22;6382;48.614;8.880;2022-08-19T07:58:56;19.30;99.90
12634;DHT22;6382;48.614;8.880;2022-08-19T08:01:24;19.90;99.90
12634;DHT22;6382;48.614;8.880;2022-08-19T08:03:52;19.50;99.90
12634;DHT22;6382;48.614;8.880;2022-08-19T08:06:37;21.20;99.90
12634;DHT22;6382;48.614;8.880;2022-08-19T08:09:25;21.00;99.90
12634;DHT22;6382;48.614;8.880;2022-08-19T08:11:54;19.70;99.90
12634;DHT22;6382;48.614;8.880;2022-08-19T08:14:22;20.30;99.90
12634;DHT22;6382;48.614;8.880;2022-08-19T08:16:55;21.10;99.90
12634;DHT22;6382;48.614;8.880;2022-08-19T08:19:25;19.90;99.90
12634;DHT22;6382;48.614;8.880;2022-08-19T08:21:56;21.00;99.90
12634;DHT22;6382;48.614;8.880;2022-08-19T08:24:24;20.30;99.90
12634;DHT22;6382;48.614;8.880;2022-08-19T08:26:54;20.90;99.90
12634;DHT22;6382;48.614;8.880;2022-08-19T08:29:23;20.80;99.90
12634;DHT22;6382;48.614;8.880;2022-08-19T08:31:51;20.20;99.90
12634;DHT22;6382;48.614;8.880;2022-08-19T08:34:25;20.60;99.90
12634;DHT22;6382;48.614;8.880;2022-08-19T08:36:53;21.10;99.90
12634;DHT22;6382;48.614;8.880;2022-08-19T08:39:20;20.80;99.90
12634;DHT22;6382;48.614;8.880;2022-08-19T08:47:03;20.10;99.90
12634;DHT22;6382;48.614;8.880;2022-08-19T08:49:36;20.10;99.90
12634;DHT22;6382;48.614;8.880;2022-08-19T08:52:22;20.10;99.90
12634;DHT22;6382;48.614;8.880;2022-08-19T08:54:51;20.30;99.90
12634;DHT22;6382;48.614;8.880;2022-08-19T08:57:27;20.30;99.90
12634;DHT22;6382;48.614;8.880;2022-08-19T09:00:10;21.90;99.90
12634;DHT22;6382;48.614;8.880;2022-08-19T09:02:41;20.30;99.90
12634;DHT22;6382;48.614;8.880;2022-08-19T09:05:09;21.70;99.90
12634;DHT22;6382;48.614;8.880;2022-08-19T09:10:26;20.40;99.90
12634;DHT22;6382;48.614;8.880;2022-08-19T09:15:28;20.30;99.90
12634;DHT22;6382;48.614;8.880;2022-08-19T09:18:02;20.30;99.90
12634;DHT22;6382;48.614;8.880;2022-08-19T09:20:32;20.90;99.90
12634;DHT22;6382;48.614;8.880;2022-08-19T09:22:59;20.20;99.90
12634;DHT22;6382;48.614;8.880;2022-08-19T09:25:26;20.20;99.90
12634;DHT22;6382;48.614;8.880;2022-08-19T09:27:55;20.20;99.90
12634;DHT22;6382;48.614;8.880;2022-08-19T09:30:33;21.30;99.90
12634;DHT22;6382;48.614;8.880;2022-08-19T09:33:00;21.00;99.90
12634;DHT22;6382;48.614;8.880;2022-08-19T09:35:27;20.30;99.90
12634;DHT22;6382;48.614;8.880;2022-08-19T09:37:55;21.20;99.90
12634;DHT22;6382;48.614;8.880;2022-08-19T09:40:26;21.00;99.90
12634;DHT22;6382;48.614;8.880;2022-08-19T09:42:56;20.70;99.90
12634;DHT22;6382;48.614;8.880;2022-08-19T09:45:24;21.20;99.90
12634;DHT22;6382;48.614;8.880;2022-08-19T09:47:51;22.70;99.90
12634;DHT22;6382;48.614;8.880;2022-08-19T09:50:21;21.70;99.90
12634;DHT22;6382;48.614;8.880;2022-08-19T09:52:48;20.70;99.90
12634;DHT22;6382;48.614;8.880;2022-08-19T09:55:22;20.10;99.90
12634;DHT22;6382;48.614;8.880;2022-08-19T09:57:49;20.30;99.90
12634;DHT22;6382;48.614;8.880;2022-08-19T10:00:16;21.60;99.90
12634;DHT22;6382;48.614;8.880;2022-08-19T10:02:43;20.20;99.90
12634;DHT22;6382;48.614;8.880;2022-08-19T10:05:11;22.70;99.90
12634;DHT22;6382;48.614;8.880;2022-08-19T10:07:56;20.60;99.90
12634;DHT22;6382;48.614;8.880;2022-08-19T10:10:23;21.00;99.90
12634;DHT22;6382;48.614;8.880;2022-08-19T10:12:52;21.00;99.90
12634;DHT22;6382;48.614;8.880;2022-08-19T10:15:20;22.60;99.90
12634;DHT22;6382;48.614;8.880;2022-08-19T10:17:55;21.40;99.90
12634;DHT22;6382;48.614;8.880;2022-08-19T10:20:24;20.90;99.90
12634;DHT22;6382;48.614;8.880;2022-08-19T10:22:51;22.30;99.90
12634;DHT22;6382;48.614;8.880;2022-08-19T10:25:18;20.30;99.90
12634;DHT22;6382;48.614;8.880;2022-08-19T10:27:45;20.60;99.90
12634;DHT22;6382;48.614;8.880;2022-08-19T10:30:17;21.70;99.90
12634;DHT22;6382;48.614;8.880;2022-08-19T10:32:45;20.40;99.90
12634;DHT22;6382;48.614;8.880;2022-08-19T10:35:13;20.50;99.90
12634;DHT22;6382;48.614;8.880;2022-08-19T10:37:47;20.50;99.90
12634;DHT22;6382;48.614;8.880;2022-08-19T10:40:27;20.60;99.90
12634;DHT22;6382;48.614;8.880;2022-08-19T10:42:55;21.40;99.90
12634;DHT22;6382;48.614;8.880;2022-08-19T10:45:22;20.60;99.90
12634;DHT22;6382;48.614;8.880;2022-08-19T10:47:53;20.70;99.90
12634;DHT22;6382;48.614;8.880;2022-08-19T10:50:21;21.40;99.90
12634;DHT22;6382;48.614;8.880;2022-08-19T10:53:07;20.80;99.90
12634;DHT22;6382;48.614;8.880;2022-08-19T10:55:37;20.80;99.90
12634;DHT22;6382;48.614;8.880;2022-08-19T10:58:23;20.90;99.90
12634;DHT22;6382;48.614;8.880;2022-08-19T11:00:52;20.90;99.90
12634;DHT22;6382;48.614;8.880;2022-08-19T11:03:20;20.90;99.90
12634;DHT22;6382;48.614;8.880;2022-08-19T11:05:56;20.90;99.90
12634;DHT22;6382;48.614;8.880;2022-08-19T11:08:23;21.00;99.90
12634;DHT22;6382;48.614;8.880;2022-08-19T11:10:51;21.80;99.90
12634;DHT22;6382;48.614;8.880;2022-08-19T11:13:21;21.80;99.90
12634;DHT22;6382;48.614;8.880;2022-08-19T11:15:56;21.50;99.90
12634;DHT22;6382;48.614;8.880;2022-08-19T11:18:23;21.10;99.90
12634;DHT22;6382;48.614;8.880;2022-08-19T11:20:50;21.10;99.90
12634;DHT22;6382;48.614;8.880;2022-08-19T11:23:17;21.10;99.90
12634;DHT22;6382;48.614;8.880;2022-08-19T11:25:44;21.10;99.90
12634;DHT22;6382;48.614;8.880;2022-08-19T11:28:12;21.10;99.90
12634;DHT22;6382;48.614;8.880;2022-08-19T11:30:39;21.10;99.90
12634;DHT22;6382;48.614;8.880;2022-08-19T11:33:06;21.20;99.90
12634;DHT22;6382;48.614;8.880;2022-08-19T11:35:32;21.20;99.90
12634;DHT22;6382;48.614;8.880;2022-08-19T11:37:59;21.30;99.90
12634;DHT22;6382;48.614;8.880;2022-08-19T11:40:28;21.30;99.90
12634;DHT22;6382;48.614;8.880;2022-08-19T11:42:54;21.20;99.90
12634;DHT22;6382;48.614;8.880;2022-08-19T11:45:22;21.30;99.90
12634;DHT22;6382;48.614;8.880;2022-08-19T11:47:49;21.20;99.90
12634;DHT22;6382;48.614;8.880;2022-08-19T11:50:16;21.30;99.90
12634;DHT22;6382;48.614;8.880;2022-08-19T11:52:43;21.30;99.90
12634;DHT22;6382;48.614;8.880;2022-08-19T11:55:12;20.60;99.90
12634;DHT22;6382;48.614;8.880;2022-08-19T11:57:38;21.00;99.90
12634;DHT22;6382;48.614;8.880;2022-08-19T12:00:09;21.50;99.90
12634;DHT22;6382;48.614;8.880;2022-08-19T12:02:37;21.60;99.90
12634;DHT22;6382;48.614;8.880;2022-08-19T12:05:04;21.70;99.90
12634;DHT22;6382;48.614;8.880;2022-08-19T12:07:37;21.80;99.90
12634;DHT22;6382;48.614;8.880;2022-08-19T12:10:04;21.90;99.90
12634;DHT22;6382;48.614;8.880;2022-08-19T12:12:31;22.10;99.90
12634;DHT22;6382;48.614;8.880;2022-08-19T12:14:58;22.10;99.90
12634;DHT22;6382;48.614;8.880;2022-08-19T12:17:26;22.10;99.90
12634;DHT22;6382;48.614;8.880;2022-08-19T12:19:53;22.20;99.90
12634;DHT22;6382;48.614;8.880;2022-08-19T12:22:20;22.20;99.90
12634;DHT22;6382;48.614;8.880;2022-08-19T12:24:47;22.20;99.90
12634;DHT22;6382;48.614;8.880;2022-08-19T12:27:16;22.30;99.90
12634;DHT22;6382;48.614;8.880;2022-08-19T12:30:03;22.50;99.90
12634;DHT22;6382;48.614;8.880;2022-08-19T12:32:30;22.60;99.90
12634;DHT22;6382;48.614;8.880;2022-08-19T12:34:57;22.80;99.90
12634;DHT22;6382;48.614;8.880;2022-08-19T12:37:24;22.90;99.90
12634;DHT22;6382;48.614;8.880;2022-08-19T12:39:50;23.10;99.90
12634;DHT22;6382;48.614;8.880;2022-08-19T12:42:17;23.30;99.90
12634;DHT22;6382;48.614;8.880;2022-08-19T12:44:44;23.50;99.90
12634;DHT22;6382;48.614;8.880;2022-08-19T12:47:12;23.60;99.90
12634;DHT22;6382;48.614;8.880;2022-08-19T12:49:41;23.60;99.90
12634;DHT22;6382;48.614;8.880;2022-08-19T12:52:21;23.50;99.90
12634;DHT22;6382;48.614;8.880;2022-08-19T12:54:49;23.60;99.90
12634;DHT22;6382;48.614;8.880;2022-08-19T12:57:21;23.50;99.90
12634;DHT22;6382;48.614;8.880;2022-08-19T12:59:57;23.50;99.90
12634;DHT22;6382;48.614;8.880;2022-08-19T13:02:24;23.50;99.90
12634;DHT22;6382;48.614;8.880;2022-08-19T13:04:51;23.50;99.90
12634;DHT22;6382;48.614;8.880;2022-08-19T13:07:18;23.60;99.90
12634;DHT22;6382;48.614;8.880;2022-08-19T13:09:45;23.60;99.90
12634;DHT22;6382;48.614;8.880;2022-08-19T13:12:11;23.70;99.90
12634;DHT22;6382;48.614;8.880;2022-08-19T13:14:39;23.80;99.90
12634;DHT22;6382;48.614;8.880;2022-08-19T13:17:07;23.90;99.90
12634;DHT22;6382;48.614;8.880;2022-08-19T13:19:38;23.90;99.90
12634;DHT22;6382;48.614;8.880;2022-08-19T13:22:06;24.00;99.90
12634;DHT22;6382;48.614;8.880;2022-08-19T13:24:55;23.90;99.90
12634;DHT22;6382;48.614;8.880;2022-08-19T13:27:22;23.80;99.90
12634;DHT22;6382;48.614;8.880;2022-08-19T13:29:49;23.80;99.90
12634;DHT22;6382;48.614;8.880;2022-08-19T13:32:34;24.80;99.90
12634;DHT22;6382;48.614;8.880;2022-08-19T13:35:19;23.90;99.90
12634;DHT22;6382;48.614;8.880;2022-08-19T13:37:46;23.90;99.90
12634;DHT22;6382;48.614;8.880;2022-08-19T13:40:15;23.90;99.90
12634;DHT22;6382;48.614;8.880;2022-08-19T13:42:45;24.10;99.90
12634;DHT22;6382;48.614;8.880;2022-08-19T13:45:18;24.40;99.90
12634;DHT22;6382;48.614;8.880;2022-08-19T13:47:49;24.10;99.90
12634;DHT22;6382;48.614;8.880;2022-08-19T13:50:23;24.20;99.90
12634;DHT22;6382;48.614;8.880;2022-08-19T13:52:52;24.50;99.90
12634;DHT22;6382;48.614;8.880;2022-08-19T13:55:19;24.70;99.90
12634;DHT22;6382;48.614;8.880;2022-08-19T13:57:51;24.10;99.90
12634;DHT22;6382;48.614;8.880;2022-08-19T14:00:18;24.10;99.90
12634;DHT22;6382;48.614;8.880;2022-08-19T14:02:46;24.10;99.90
12634;DHT22;6382;48.614;8.880;2022-08-19T14:05:14;24.10;99.90
12634;DHT22;6382;48.614;8.880;2022-08-19T14:07:42;24.30;99.90
12634;DHT22;6382;48.614;8.880;2022-08-19T14:10:09;24.90;99.90
12634;DHT22;6382;48.614;8.880;2022-08-19T14:12:37;24.50;99.90
12634;DHT22;6382;48.614;8.880;2022-08-19T14:15:04;24.50;99.90
12634;DHT22;6382;48.614;8.880;2022-08-19T14:17:31;24.50;99.90
12634;DHT22;6382;48.614;8.880;2022-08-19T14:19:59;24.40;99.90
12634;DHT22;6382;48.614;8.880;2022-08-19T14:22:37;24.30;99.90
12634;DHT22;6382;48.614;8.880;2022-08-19T14:25:04;24.10;99.90
12634;DHT22;6382;48.614;8.880;2022-08-19T14:27:35;24.10;99.90
12634;DHT22;6382;48.614;8.880;2022-08-19T14:30:03;23.90;99.90
12634;DHT22;6382;48.614;8.880;2022-08-19T14:32:29;23.80;99.90
12634;DHT22;6382;48.614;8.880;2022-08-19T14:34:56;25.90;99.90
12634;DHT22;6382;48.614;8.880;2022-08-19T14:37:23;24.40;99.90
12634;DHT22;6382;48.614;8.880;2022-08-19T14:39:50;23.60;99.90
12634;DHT22;6382;48.614;8.880;2022-08-19T14:42:17;23.60;99.90
12634;DHT22;6382;48.614;8.880;2022-08-19T14:44:44;25.40;99.90
12634;DHT22;6382;48.614;8.880;2022-08-19T14:47:10;23.90;99.90
12634;DHT22;6382;48.614;8.880;2022-08-19T14:49:37;24.00;99.90
12634;DHT22;6382;48.614;8.880;2022-08-19T14:52:12;23.50;99.90
12634;DHT22;6382;48.614;8.880;2022-08-19T14:54:39;24.30;99.90
12634;DHT22;6382;48.614;8.880;2022-08-19T14:57:05;23.60;99.90
12634;DHT22;6382;48.614;8.880;2022-08-19T14:59:33;23.40;99.90
12634;DHT22;6382;48.614;8.880;2022-08-19T15:02:00;23.40;99.90
12634;DHT22;6382;48.614;8.880;2022-08-19T15:04:47;23.50;99.90
12634;DHT22;6382;48.614;8.880;2022-08-19T15:07:23;23.60;99.90
12634;DHT22;6382;48.614;8.880;2022-08-19T15:09:54;23.60;99.90
12634;DHT22;6382;48.614;8.880;2022-08-19T15:12:21;23.80;99.90
12634;DHT22;6382;48.614;8.880;2022-08-19T15:14:49;23.60;99.90
12634;DHT22;6382;48.614;8.880;2022-08-19T15:17:22;24.80;99.90
12634;DHT22;6382;48.614;8.880;2022-08-19T15:20:09;23.50;99.90
12634;DHT22;6382;48.614;8.880;2022-08-19T15:22:36;23.60;99.90
12634;DHT22;6382;48.614;8.880;2022-08-19T15:25:04;23.50;99.90
12634;DHT22;6382;48.614;8.880;2022-08-19T15:27:31;23.50;99.90
12634;DHT22;6382;48.614;8.880;2022-08-19T15:29:58;23.50;99.90
12634;DHT22;6382;48.614;8.880;2022-08-19T15:32:27;23.60;99.90
12634;DHT22;6382;48.614;8.880;2022-08-19T15:34:57;24.80;99.90
12634;DHT22;6382;48.614;8.880;2022-08-19T15:37:24;23.70;99.90
12634;DHT22;6382;48.614;8.880;2022-08-19T15:39:50;23.80;99.90
12634;DHT22;6382;48.614;8.880;2022-08-19T15:42:17;23.80;99.90
12634;DHT22;6382;48.614;8.880;2022-08-19T15:44:55;24.10;99.90
12634;DHT22;6382;48.614;8.880;2022-08-19T15:47:28;25.20;99.90
12634;DHT22;6382;48.614;8.880;2022-08-19T15:50:08;25.00;99.90
12634;DHT22;6382;48.614;8.880;2022-08-19T15:52:41;23.90;99.90
12634;DHT22;6382;48.614;8.880;2022-08-19T15:55:20;23.90;99.90
12634;DHT22;6382;48.614;8.880;2022-08-19T15:58:01;24.00;99.90
12634;DHT22;6382;48.614;8.880;2022-08-19T16:00:58;24.00;99.90
12634;DHT22;6382;48.614;8.880;2022-08-19T16:03:50;24.00;99.90
12634;DHT22;6382;48.614;8.880;2022-08-19T16:06:42;24.00;99.90
12634;DHT22;6382;48.614;8.880;2022-08-19T16:09:09;24.00;99.90
12634;DHT22;6382;48.614;8.880;2022-08-19T16:11:36;24.00;99.90